sensor_id;sensor_type;location;lat;lon;timestamp;P1;durP1;ratioP1;P2;durP2;ratioP2
62071;SDS011;48031;48.542;13.232;2023-02-01T00:03:48;2.63;;;2.17;;
62071;SDS011;48031;48.542;13.232;2023-02-01T00:07:50;3.78;;;2.53;;
62071;SDS011;48031;48.542;13.232;2023-02-01T00:11:52;3.45;;;2.60;;
62071;SDS011;48031;48.542;13.232;2023-02-01T00:15:54;5.70;;;2.60;;
62071;SDS011;48031;48.542;13.232;2023-02-01T00:19:56;4.60;;;2.95;;
62071;SDS011;48031;48.542;13.232;2023-02-01T00:23:57;3.67;;;2.15;;
62071;SDS011;48031;48.542;13.232;2023-02-01T00:28:00;4.68;;;2.83;;
62071;SDS011;48031;48.542;13.232;2023-02-01T00:32:02;6.47;;;3.33;;
62071;SDS011;48031;48.542;13.232;2023-02-01T00:36:04;4.25;;;2.70;;
62071;SDS011;48031;48.542;13.232;2023-02-01T00:40:08;4.75;;;2.67;;
62071;SDS011;48031;48.542;13.232;2023-02-01T00:44:10;4.45;;;2.72;;
62071;SDS011;48031;48.542;13.232;2023-02-01T00:48:12;5.15;;;2.92;;
62071;SDS011;48031;48.542;13.232;2023-02-01T00:52:14;4.35;;;2.60;;
62071;SDS011;48031;48.542;13.232;2023-02-01T00:56:16;8.35;;;3.38;;
62071;SDS011;48031;48.542;13.232;2023-02-01T01:00:19;6.18;;;2.65;;
62071;SDS011;48031;48.542;13.232;2023-02-01T01:04:21;4.40;;;3.20;;
62071;SDS011;48031;48.542;13.232;2023-02-01T01:08:23;5.75;;;3.05;;
62071;SDS011;48031;48.542;13.232;2023-02-01T01:12:25;4.68;;;2.70;;
62071;SDS011;48031;48.542;13.232;2023-02-01T01:16:28;6.80;;;3.15;;
62071;SDS011;48031;48.542;13.232;2023-02-01T01:20:33;3.90;;;2.28;;
62071;SDS011;48031;48.542;13.232;2023-02-01T01:24:36;7.75;;;3.22;;
62071;SDS011;48031;48.542;13.232;2023-02-01T01:28:38;3.97;;;2.55;;
62071;SDS011;48031;48.542;13.232;2023-02-01T01:32:40;4.82;;;2.90;;
62071;SDS011;48031;48.542;13.232;2023-02-01T01:36:42;8.30;;;3.30;;
62071;SDS011;48031;48.542;13.232;2023-02-01T01:40:47;6.47;;;3.58;;
62071;SDS011;48031;48.542;13.232;2023-02-01T01:45:04;5.60;;;2.97;;
62071;SDS011;48031;48.542;13.232;2023-02-01T01:49:13;5.15;;;3.10;;
62071;SDS011;48031;48.542;13.232;2023-02-01T01:53:20;4.32;;;2.72;;
62071;SDS011;48031;48.542;13.232;2023-02-01T01:57:27;5.00;;;2.90;;
62071;SDS011;48031;48.542;13.232;2023-02-01T02:01:36;4.03;;;2.95;;
62071;SDS011;48031;48.542;13.232;2023-02-01T02:05:38;5.60;;;3.08;;
62071;SDS011;48031;48.542;13.232;2023-02-01T02:09:40;6.03;;;3.17;;
62071;SDS011;48031;48.542;13.232;2023-02-01T02:13:59;6.18;;;2.60;;
62071;SDS011;48031;48.542;13.232;2023-02-01T02:18:04;4.15;;;3.10;;
62071;SDS011;48031;48.542;13.232;2023-02-01T02:31:02;5.28;;;2.67;;
62071;SDS011;48031;48.542;13.232;2023-02-01T02:35:37;3.67;;;2.78;;
62071;SDS011;48031;48.542;13.232;2023-02-01T02:40:15;4.72;;;3.13;;
62071;SDS011;48031;48.542;13.232;2023-02-01T02:53:38;5.65;;;3.30;;
62071;SDS011;48031;48.542;13.232;2023-02-01T02:58:05;6.05;;;3.38;;
62071;SDS011;48031;48.542;13.232;2023-02-01T03:02:28;4.82;;;3.08;;
62071;SDS011;48031;48.542;13.232;2023-02-01T03:06:50;5.65;;;2.78;;
62071;SDS011;48031;48.542;13.232;2023-02-01T03:14:59;5.72;;;3.60;;
62071;SDS011;48031;48.542;13.232;2023-02-01T03:19:17;4.32;;;2.85;;
62071;SDS011;48031;48.542;13.232;2023-02-01T03:23:23;5.78;;;3.30;;
62071;SDS011;48031;48.542;13.232;2023-02-01T03:27:32;4.07;;;2.53;;
62071;SDS011;48031;48.542;13.232;2023-02-01T03:31:38;6.65;;;3.10;;
62071;SDS011;48031;48.542;13.232;2023-02-01T03:40:14;4.72;;;2.88;;
62071;SDS011;48031;48.542;13.232;2023-02-01T03:44:19;4.50;;;2.95;;
62071;SDS011;48031;48.542;13.232;2023-02-01T03:48:22;3.67;;;2.78;;
62071;SDS011;48031;48.542;13.232;2023-02-01T03:52:28;5.47;;;3.15;;
62071;SDS011;48031;48.542;13.232;2023-02-01T03:56:32;3.33;;;2.38;;
62071;SDS011;48031;48.542;13.232;2023-02-01T04:00:39;5.82;;;3.05;;
62071;SDS011;48031;48.542;13.232;2023-02-01T04:04:41;7.00;;;3.33;;
62071;SDS011;48031;48.542;13.232;2023-02-01T04:08:43;5.97;;;2.83;;
62071;SDS011;48031;48.542;13.232;2023-02-01T04:12:45;5.22;;;2.58;;
62071;SDS011;48031;48.542;13.232;2023-02-01T04:16:47;4.47;;;3.30;;
62071;SDS011;48031;48.542;13.232;2023-02-01T04:20:50;6.07;;;3.40;;
62071;SDS011;48031;48.542;13.232;2023-02-01T04:24:52;4.97;;;3.25;;
62071;SDS011;48031;48.542;13.232;2023-02-01T04:28:54;4.93;;;2.88;;
62071;SDS011;48031;48.542;13.232;2023-02-01T04:32:56;4.43;;;2.85;;
62071;SDS011;48031;48.542;13.232;2023-02-01T04:36:58;7.05;;;3.20;;
62071;SDS011;48031;48.542;13.232;2023-02-01T04:41:00;5.93;;;3.90;;
62071;SDS011;48031;48.542;13.232;2023-02-01T04:45:02;4.90;;;3.10;;
62071;SDS011;48031;48.542;13.232;2023-02-01T04:49:04;3.75;;;2.67;;
62071;SDS011;48031;48.542;13.232;2023-02-01T04:53:06;6.72;;;3.42;;
62071;SDS011;48031;48.542;13.232;2023-02-01T04:57:08;7.20;;;3.70;;
62071;SDS011;48031;48.542;13.232;2023-02-01T05:01:11;6.82;;;4.13;;
62071;SDS011;48031;48.542;13.232;2023-02-01T05:05:13;4.25;;;2.97;;
62071;SDS011;48031;48.542;13.232;2023-02-01T05:09:15;7.43;;;3.88;;
62071;SDS011;48031;48.542;13.232;2023-02-01T05:13:17;5.95;;;3.75;;
62071;SDS011;48031;48.542;13.232;2023-02-01T05:17:37;6.78;;;3.88;;
62071;SDS011;48031;48.542;13.232;2023-02-01T05:21:41;7.25;;;4.53;;
62071;SDS011;48031;48.542;13.232;2023-02-01T05:25:43;4.60;;;3.17;;
62071;SDS011;48031;48.542;13.232;2023-02-01T05:29:45;8.00;;;3.97;;
62071;SDS011;48031;48.542;13.232;2023-02-01T05:33:47;7.47;;;4.25;;
62071;SDS011;48031;48.542;13.232;2023-02-01T05:37:49;8.43;;;4.93;;
62071;SDS011;48031;48.542;13.232;2023-02-01T05:41:51;7.82;;;4.65;;
62071;SDS011;48031;48.542;13.232;2023-02-01T05:45:53;7.85;;;4.28;;
62071;SDS011;48031;48.542;13.232;2023-02-01T05:49:55;8.23;;;4.05;;
62071;SDS011;48031;48.542;13.232;2023-02-01T05:53:57;7.78;;;4.35;;
62071;SDS011;48031;48.542;13.232;2023-02-01T05:57:59;10.80;;;6.10;;
62071;SDS011;48031;48.542;13.232;2023-02-01T06:02:00;3.70;;;2.80;;
62071;SDS011;48031;48.542;13.232;2023-02-01T06:06:03;8.25;;;4.30;;
62071;SDS011;48031;48.542;13.232;2023-02-01T06:10:05;4.22;;;2.88;;
62071;SDS011;48031;48.542;13.232;2023-02-01T06:14:08;8.60;;;4.50;;
62071;SDS011;48031;48.542;13.232;2023-02-01T06:18:09;7.80;;;4.15;;
62071;SDS011;48031;48.542;13.232;2023-02-01T06:22:11;7.82;;;4.28;;
62071;SDS011;48031;48.542;13.232;2023-02-01T06:26:13;7.25;;;3.70;;
62071;SDS011;48031;48.542;13.232;2023-02-01T06:30:15;7.95;;;4.32;;
62071;SDS011;48031;48.542;13.232;2023-02-01T06:34:18;5.25;;;3.28;;
62071;SDS011;48031;48.542;13.232;2023-02-01T06:38:22;8.23;;;4.57;;
62071;SDS011;48031;48.542;13.232;2023-02-01T06:42:24;6.13;;;3.72;;
62071;SDS011;48031;48.542;13.232;2023-02-01T06:46:26;6.38;;;3.13;;
62071;SDS011;48031;48.542;13.232;2023-02-01T06:50:28;7.57;;;4.30;;
62071;SDS011;48031;48.542;13.232;2023-02-01T06:54:30;6.97;;;4.25;;
62071;SDS011;48031;48.542;13.232;2023-02-01T06:58:35;6.63;;;4.20;;
62071;SDS011;48031;48.542;13.232;2023-02-01T07:02:37;7.68;;;3.65;;
62071;SDS011;48031;48.542;13.232;2023-02-01T07:06:40;6.85;;;3.85;;
62071;SDS011;48031;48.542;13.232;2023-02-01T07:10:42;6.15;;;3.53;;
62071;SDS011;48031;48.542;13.232;2023-02-01T07:14:44;8.40;;;4.28;;
62071;SDS011;48031;48.542;13.232;2023-02-01T07:18:46;7.55;;;4.35;;
62071;SDS011;48031;48.542;13.232;2023-02-01T07:22:48;5.28;;;3.10;;
62071;SDS011;48031;48.542;13.232;2023-02-01T07:26:55;5.63;;;3.42;;
62071;SDS011;48031;48.542;13.232;2023-02-01T07:31:04;3.58;;;2.92;;
62071;SDS011;48031;48.542;13.232;2023-02-01T07:35:10;7.13;;;3.83;;
62071;SDS011;48031;48.542;13.232;2023-02-01T07:39:12;8.70;;;4.10;;
62071;SDS011;48031;48.542;13.232;2023-02-01T07:43:14;8.85;;;3.80;;
62071;SDS011;48031;48.542;13.232;2023-02-01T07:47:15;5.57;;;3.30;;
62071;SDS011;48031;48.542;13.232;2023-02-01T07:51:17;5.97;;;3.60;;
62071;SDS011;48031;48.542;13.232;2023-02-01T07:55:19;4.25;;;2.67;;
62071;SDS011;48031;48.542;13.232;2023-02-01T07:59:21;3.53;;;2.53;;
62071;SDS011;48031;48.542;13.232;2023-02-01T08:03:23;6.22;;;3.15;;
62071;SDS011;48031;48.542;13.232;2023-02-01T08:07:25;3.92;;;2.80;;
62071;SDS011;48031;48.542;13.232;2023-02-01T08:11:27;4.65;;;2.95;;
62071;SDS011;48031;48.542;13.232;2023-02-01T08:15:29;3.75;;;2.58;;
62071;SDS011;48031;48.542;13.232;2023-02-01T08:19:31;3.08;;;2.50;;
62071;SDS011;48031;48.542;13.232;2023-02-01T08:23:34;5.68;;;2.75;;
62071;SDS011;48031;48.542;13.232;2023-02-01T08:27:37;5.03;;;3.15;;
62071;SDS011;48031;48.542;13.232;2023-02-01T08:31:39;3.33;;;2.33;;
62071;SDS011;48031;48.542;13.232;2023-02-01T08:35:44;3.33;;;2.67;;
62071;SDS011;48031;48.542;13.232;2023-02-01T08:39:46;4.22;;;2.80;;
62071;SDS011;48031;48.542;13.232;2023-02-01T08:43:51;2.92;;;2.47;;
62071;SDS011;48031;48.542;13.232;2023-02-01T08:47:55;3.78;;;2.80;;
62071;SDS011;48031;48.542;13.232;2023-02-01T08:51:58;3.97;;;2.40;;
62071;SDS011;48031;48.542;13.232;2023-02-01T08:56:07;3.33;;;2.33;;
62071;SDS011;48031;48.542;13.232;2023-02-01T09:00:12;3.03;;;2.22;;
62071;SDS011;48031;48.542;13.232;2023-02-01T09:04:15;3.42;;;2.75;;
62071;SDS011;48031;48.542;13.232;2023-02-01T09:08:16;3.65;;;2.45;;
62071;SDS011;48031;48.542;13.232;2023-02-01T09:12:20;3.20;;;1.90;;
62071;SDS011;48031;48.542;13.232;2023-02-01T09:16:22;4.35;;;2.42;;
62071;SDS011;48031;48.542;13.232;2023-02-01T09:20:24;3.40;;;2.45;;
62071;SDS011;48031;48.542;13.232;2023-02-01T09:24:26;5.05;;;2.72;;
62071;SDS011;48031;48.542;13.232;2023-02-01T09:28:29;3.67;;;2.10;;
62071;SDS011;48031;48.542;13.232;2023-02-01T09:32:30;3.88;;;2.60;;
62071;SDS011;48031;48.542;13.232;2023-02-01T09:36:32;2.80;;;2.35;;
62071;SDS011;48031;48.542;13.232;2023-02-01T09:40:34;6.25;;;3.00;;
62071;SDS011;48031;48.542;13.232;2023-02-01T09:44:44;5.13;;;3.35;;
62071;SDS011;48031;48.542;13.232;2023-02-01T09:48:57;5.25;;;3.45;;
62071;SDS011;48031;48.542;13.232;2023-02-01T09:53:12;6.35;;;2.92;;
62071;SDS011;48031;48.542;13.232;2023-02-01T09:57:24;5.05;;;3.08;;
62071;SDS011;48031;48.542;13.232;2023-02-01T10:05:55;7.05;;;3.83;;
62071;SDS011;48031;48.542;13.232;2023-02-01T10:10:15;7.25;;;4.00;;
62071;SDS011;48031;48.542;13.232;2023-02-01T10:14:34;3.70;;;2.53;;
62071;SDS011;48031;48.542;13.232;2023-02-01T10:23:27;6.63;;;3.30;;
62071;SDS011;48031;48.542;13.232;2023-02-01T10:27:35;5.95;;;3.80;;
62071;SDS011;48031;48.542;13.232;2023-02-01T10:31:39;7.85;;;5.20;;
62071;SDS011;48031;48.542;13.232;2023-02-01T10:35:41;5.93;;;3.75;;
62071;SDS011;48031;48.542;13.232;2023-02-01T10:39:47;6.15;;;3.88;;
62071;SDS011;48031;48.542;13.232;2023-02-01T10:43:53;6.47;;;4.22;;
62071;SDS011;48031;48.542;13.232;2023-02-01T10:47:58;7.43;;;4.22;;
62071;SDS011;48031;48.542;13.232;2023-02-01T10:56:24;5.72;;;3.70;;
62071;SDS011;48031;48.542;13.232;2023-02-01T11:00:33;6.88;;;4.10;;
62071;SDS011;48031;48.542;13.232;2023-02-01T11:04:44;6.38;;;3.70;;
62071;SDS011;48031;48.542;13.232;2023-02-01T11:08:47;6.75;;;3.67;;
62071;SDS011;48031;48.542;13.232;2023-02-01T11:12:53;7.32;;;4.22;;
62071;SDS011;48031;48.542;13.232;2023-02-01T11:16:59;7.00;;;4.05;;
62071;SDS011;48031;48.542;13.232;2023-02-01T11:21:21;7.03;;;4.30;;
62071;SDS011;48031;48.542;13.232;2023-02-01T11:25:24;2.80;;;2.38;;
62071;SDS011;48031;48.542;13.232;2023-02-01T11:29:29;3.42;;;2.65;;
62071;SDS011;48031;48.542;13.232;2023-02-01T11:33:53;5.18;;;2.75;;
62071;SDS011;48031;48.542;13.232;2023-02-01T11:38:00;2.83;;;2.25;;
62071;SDS011;48031;48.542;13.232;2023-02-01T11:42:14;4.35;;;3.17;;
62071;SDS011;48031;48.542;13.232;2023-02-01T11:46:18;6.03;;;2.80;;
62071;SDS011;48031;48.542;13.232;2023-02-01T11:54:59;2.55;;;2.13;;
62071;SDS011;48031;48.542;13.232;2023-02-01T12:09:00;4.40;;;3.80;;
62071;SDS011;48031;48.542;13.232;2023-02-01T12:13:11;4.10;;;2.83;;
62071;SDS011;48031;48.542;13.232;2023-02-01T12:17:34;4.28;;;3.63;;
62071;SDS011;48031;48.542;13.232;2023-02-01T12:34:45;5.85;;;2.47;;
62071;SDS011;48031;48.542;13.232;2023-02-01T12:43:26;5.63;;;2.80;;
62071;SDS011;48031;48.542;13.232;2023-02-01T12:47:42;4.93;;;2.67;;
62071;SDS011;48031;48.542;13.232;2023-02-01T12:51:50;10.65;;;2.92;;
62071;SDS011;48031;48.542;13.232;2023-02-01T12:55:57;7.10;;;3.33;;
62071;SDS011;48031;48.542;13.232;2023-02-01T13:17:32;8.68;;;3.10;;
62071;SDS011;48031;48.542;13.232;2023-02-01T13:21:36;4.03;;;2.63;;
62071;SDS011;48031;48.542;13.232;2023-02-01T13:30:00;4.03;;;2.72;;
62071;SDS011;48031;48.542;13.232;2023-02-01T13:34:30;5.18;;;3.20;;
62071;SDS011;48031;48.542;13.232;2023-02-01T13:39:01;5.30;;;3.22;;
62071;SDS011;48031;48.542;13.232;2023-02-01T13:43:17;4.35;;;2.85;;
62071;SDS011;48031;48.542;13.232;2023-02-01T13:47:40;8.20;;;3.45;;
62071;SDS011;48031;48.542;13.232;2023-02-01T13:51:45;4.57;;;3.33;;
62071;SDS011;48031;48.542;13.232;2023-02-01T13:56:00;3.90;;;2.58;;
62071;SDS011;48031;48.542;13.232;2023-02-01T14:00:06;4.22;;;3.00;;
62071;SDS011;48031;48.542;13.232;2023-02-01T14:04:57;3.20;;;2.10;;
62071;SDS011;48031;48.542;13.232;2023-02-01T14:13:37;2.83;;;2.35;;
62071;SDS011;48031;48.542;13.232;2023-02-01T14:17:40;5.13;;;2.03;;
62071;SDS011;48031;48.542;13.232;2023-02-01T14:21:49;3.33;;;2.25;;
62071;SDS011;48031;48.542;13.232;2023-02-01T14:26:03;4.60;;;2.60;;
62071;SDS011;48031;48.542;13.232;2023-02-01T14:30:07;3.63;;;2.90;;
62071;SDS011;48031;48.542;13.232;2023-02-01T14:34:17;4.75;;;2.40;;
62071;SDS011;48031;48.542;13.232;2023-02-01T14:38:22;3.95;;;2.13;;
62071;SDS011;48031;48.542;13.232;2023-02-01T14:51:11;4.43;;;2.42;;
62071;SDS011;48031;48.542;13.232;2023-02-01T14:55:21;5.32;;;2.80;;
62071;SDS011;48031;48.542;13.232;2023-02-01T14:59:29;4.63;;;2.70;;
62071;SDS011;48031;48.542;13.232;2023-02-01T15:03:48;5.88;;;2.72;;
62071;SDS011;48031;48.542;13.232;2023-02-01T15:07:54;8.65;;;3.03;;
62071;SDS011;48031;48.542;13.232;2023-02-01T15:12:08;5.57;;;3.00;;
62071;SDS011;48031;48.542;13.232;2023-02-01T15:16:24;3.33;;;2.67;;
62071;SDS011;48031;48.542;13.232;2023-02-01T15:20:28;3.17;;;2.03;;
62071;SDS011;48031;48.542;13.232;2023-02-01T15:24:31;2.15;;;1.95;;
62071;SDS011;48031;48.542;13.232;2023-02-01T15:28:33;5.63;;;2.50;;
62071;SDS011;48031;48.542;13.232;2023-02-01T15:32:37;4.78;;;2.60;;
62071;SDS011;48031;48.542;13.232;2023-02-01T15:36:41;4.20;;;2.25;;
62071;SDS011;48031;48.542;13.232;2023-02-01T15:45:04;4.57;;;2.58;;
62071;SDS011;48031;48.542;13.232;2023-02-01T15:49:15;3.55;;;2.22;;
62071;SDS011;48031;48.542;13.232;2023-02-01T15:53:22;3.50;;;2.05;;
62071;SDS011;48031;48.542;13.232;2023-02-01T15:57:31;3.95;;;1.90;;
62071;SDS011;48031;48.542;13.232;2023-02-01T16:01:36;6.80;;;2.67;;
62071;SDS011;48031;48.542;13.232;2023-02-01T16:05:43;5.93;;;2.70;;
62071;SDS011;48031;48.542;13.232;2023-02-01T16:09:53;5.13;;;2.50;;
62071;SDS011;48031;48.542;13.232;2023-02-01T16:13:59;5.28;;;2.58;;
62071;SDS011;48031;48.542;13.232;2023-02-01T16:18:02;3.38;;;2.00;;
62071;SDS011;48031;48.542;13.232;2023-02-01T16:22:04;4.10;;;2.10;;
62071;SDS011;48031;48.542;13.232;2023-02-01T16:26:06;2.58;;;1.50;;
62071;SDS011;48031;48.542;13.232;2023-02-01T16:30:08;5.32;;;2.33;;
62071;SDS011;48031;48.542;13.232;2023-02-01T16:34:14;3.97;;;2.40;;
62071;SDS011;48031;48.542;13.232;2023-02-01T16:38:20;5.65;;;2.20;;
62071;SDS011;48031;48.542;13.232;2023-02-01T16:42:23;6.00;;;2.22;;
62071;SDS011;48031;48.542;13.232;2023-02-01T16:46:26;2.22;;;1.52;;
62071;SDS011;48031;48.542;13.232;2023-02-01T16:50:33;4.35;;;2.13;;
62071;SDS011;48031;48.542;13.232;2023-02-01T16:54:35;2.90;;;2.42;;
62071;SDS011;48031;48.542;13.232;2023-02-01T16:58:37;3.25;;;1.83;;
62071;SDS011;48031;48.542;13.232;2023-02-01T17:02:42;4.55;;;2.33;;
62071;SDS011;48031;48.542;13.232;2023-02-01T17:06:44;2.30;;;1.77;;
62071;SDS011;48031;48.542;13.232;2023-02-01T17:10:48;6.15;;;2.40;;
62071;SDS011;48031;48.542;13.232;2023-02-01T17:14:50;1.70;;;1.60;;
62071;SDS011;48031;48.542;13.232;2023-02-01T17:18:54;2.80;;;1.80;;
62071;SDS011;48031;48.542;13.232;2023-02-01T17:22:59;3.17;;;2.10;;
62071;SDS011;48031;48.542;13.232;2023-02-01T17:27:01;8.88;;;2.10;;
62071;SDS011;48031;48.542;13.232;2023-02-01T17:31:04;3.15;;;1.83;;
62071;SDS011;48031;48.542;13.232;2023-02-01T17:35:15;3.63;;;2.03;;
62071;SDS011;48031;48.542;13.232;2023-02-01T17:39:22;5.05;;;2.45;;
62071;SDS011;48031;48.542;13.232;2023-02-01T17:43:42;3.97;;;2.00;;
62071;SDS011;48031;48.542;13.232;2023-02-01T17:47:44;5.22;;;2.17;;
62071;SDS011;48031;48.542;13.232;2023-02-01T17:51:48;2.38;;;1.90;;
62071;SDS011;48031;48.542;13.232;2023-02-01T17:55:53;6.22;;;1.90;;
62071;SDS011;48031;48.542;13.232;2023-02-01T17:59:57;4.38;;;2.13;;
62071;SDS011;48031;48.542;13.232;2023-02-01T18:03:59;3.03;;;1.58;;
62071;SDS011;48031;48.542;13.232;2023-02-01T18:08:00;2.78;;;1.70;;
62071;SDS011;48031;48.542;13.232;2023-02-01T18:12:03;2.85;;;1.80;;
62071;SDS011;48031;48.542;13.232;2023-02-01T18:16:06;3.20;;;1.80;;
62071;SDS011;48031;48.542;13.232;2023-02-01T18:20:20;1.80;;;1.65;;
62071;SDS011;48031;48.542;13.232;2023-02-01T18:24:23;2.17;;;1.63;;
62071;SDS011;48031;48.542;13.232;2023-02-01T18:28:27;3.97;;;2.03;;
62071;SDS011;48031;48.542;13.232;2023-02-01T18:32:29;5.90;;;1.67;;
62071;SDS011;48031;48.542;13.232;2023-02-01T18:36:31;6.07;;;2.00;;
62071;SDS011;48031;48.542;13.232;2023-02-01T18:40:38;1.83;;;1.45;;
62071;SDS011;48031;48.542;13.232;2023-02-01T18:44:45;4.97;;;2.22;;
62071;SDS011;48031;48.542;13.232;2023-02-01T18:48:47;2.95;;;2.10;;
62071;SDS011;48031;48.542;13.232;2023-02-01T18:52:53;2.47;;;1.52;;
62071;SDS011;48031;48.542;13.232;2023-02-01T18:56:56;2.55;;;1.52;;
62071;SDS011;48031;48.542;13.232;2023-02-01T19:01:03;3.47;;;1.55;;
62071;SDS011;48031;48.542;13.232;2023-02-01T19:05:07;3.25;;;1.77;;
62071;SDS011;48031;48.542;13.232;2023-02-01T19:09:10;7.90;;;2.10;;
62071;SDS011;48031;48.542;13.232;2023-02-01T19:13:12;3.20;;;2.30;;
62071;SDS011;48031;48.542;13.232;2023-02-01T19:17:14;3.67;;;1.98;;
62071;SDS011;48031;48.542;13.232;2023-02-01T19:21:16;3.20;;;1.90;;
62071;SDS011;48031;48.542;13.232;2023-02-01T19:25:19;6.75;;;2.30;;
62071;SDS011;48031;48.542;13.232;2023-02-01T19:29:23;4.97;;;2.20;;
62071;SDS011;48031;48.542;13.232;2023-02-01T19:33:25;5.88;;;2.00;;
62071;SDS011;48031;48.542;13.232;2023-02-01T19:37:27;3.17;;;1.85;;
62071;SDS011;48031;48.542;13.232;2023-02-01T19:41:29;3.97;;;2.17;;
62071;SDS011;48031;48.542;13.232;2023-02-01T19:45:31;3.10;;;2.28;;
62071;SDS011;48031;48.542;13.232;2023-02-01T19:49:32;3.78;;;2.00;;
62071;SDS011;48031;48.542;13.232;2023-02-01T19:53:34;3.17;;;1.95;;
62071;SDS011;48031;48.542;13.232;2023-02-01T19:57:36;3.35;;;1.85;;
62071;SDS011;48031;48.542;13.232;2023-02-01T20:01:38;3.53;;;2.15;;
62071;SDS011;48031;48.542;13.232;2023-02-01T20:05:40;6.43;;;2.28;;
62071;SDS011;48031;48.542;13.232;2023-02-01T20:09:42;5.03;;;1.98;;
62071;SDS011;48031;48.542;13.232;2023-02-01T20:13:44;3.17;;;1.80;;
62071;SDS011;48031;48.542;13.232;2023-02-01T20:17:46;3.08;;;2.00;;
62071;SDS011;48031;48.542;13.232;2023-02-01T20:21:48;6.53;;;3.45;;
62071;SDS011;48031;48.542;13.232;2023-02-01T20:25:50;5.75;;;2.88;;
62071;SDS011;48031;48.542;13.232;2023-02-01T20:29:51;7.03;;;3.08;;
62071;SDS011;48031;48.542;13.232;2023-02-01T20:33:57;6.22;;;2.63;;
62071;SDS011;48031;48.542;13.232;2023-02-01T20:37:59;6.35;;;2.65;;
62071;SDS011;48031;48.542;13.232;2023-02-01T20:42:02;3.22;;;2.03;;
62071;SDS011;48031;48.542;13.232;2023-02-01T20:46:04;5.03;;;2.53;;
62071;SDS011;48031;48.542;13.232;2023-02-01T20:50:06;5.63;;;2.60;;
62071;SDS011;48031;48.542;13.232;2023-02-01T20:54:08;6.00;;;2.03;;
62071;SDS011;48031;48.542;13.232;2023-02-01T20:58:09;2.38;;;1.77;;
62071;SDS011;48031;48.542;13.232;2023-02-01T21:02:11;3.30;;;1.80;;
62071;SDS011;48031;48.542;13.232;2023-02-01T21:06:13;5.53;;;1.98;;
62071;SDS011;48031;48.542;13.232;2023-02-01T21:10:15;5.18;;;2.42;;
62071;SDS011;48031;48.542;13.232;2023-02-01T21:14:17;4.53;;;2.25;;
62071;SDS011;48031;48.542;13.232;2023-02-01T21:18:20;4.53;;;2.47;;
62071;SDS011;48031;48.542;13.232;2023-02-01T21:22:23;3.20;;;2.00;;
62071;SDS011;48031;48.542;13.232;2023-02-01T21:26:25;3.92;;;2.30;;
62071;SDS011;48031;48.542;13.232;2023-02-01T21:30:28;2.83;;;2.05;;
62071;SDS011;48031;48.542;13.232;2023-02-01T21:34:30;4.30;;;2.50;;
62071;SDS011;48031;48.542;13.232;2023-02-01T21:38:32;4.20;;;2.42;;
62071;SDS011;48031;48.542;13.232;2023-02-01T21:42:34;6.10;;;2.17;;
62071;SDS011;48031;48.542;13.232;2023-02-01T21:46:36;4.43;;;2.00;;
62071;SDS011;48031;48.542;13.232;2023-02-01T21:50:38;7.65;;;2.90;;
62071;SDS011;48031;48.542;13.232;2023-02-01T21:54:40;5.30;;;2.05;;
62071;SDS011;48031;48.542;13.232;2023-02-01T21:58:42;6.07;;;1.92;;
62071;SDS011;48031;48.542;13.232;2023-02-01T22:02:44;3.15;;;1.83;;
62071;SDS011;48031;48.542;13.232;2023-02-01T22:06:46;3.45;;;2.08;;
62071;SDS011;48031;48.542;13.232;2023-02-01T22:10:47;4.72;;;2.20;;
62071;SDS011;48031;48.542;13.232;2023-02-01T22:14:49;3.60;;;1.90;;
62071;SDS011;48031;48.542;13.232;2023-02-01T22:18:52;5.30;;;2.13;;
62071;SDS011;48031;48.542;13.232;2023-02-01T22:22:54;4.40;;;2.63;;
62071;SDS011;48031;48.542;13.232;2023-02-01T22:26:57;4.07;;;2.10;;
62071;SDS011;48031;48.542;13.232;2023-02-01T22:31:15;3.90;;;2.03;;
62071;SDS011;48031;48.542;13.232;2023-02-01T22:35:17;17.55;;;2.50;;
62071;SDS011;48031;48.542;13.232;2023-02-01T22:39:19;4.63;;;2.35;;
62071;SDS011;48031;48.542;13.232;2023-02-01T22:43:21;3.90;;;2.33;;
62071;SDS011;48031;48.542;13.232;2023-02-01T22:47:23;6.95;;;2.83;;
62071;SDS011;48031;48.542;13.232;2023-02-01T22:51:26;8.55;;;2.67;;
62071;SDS011;48031;48.542;13.232;2023-02-01T22:55:30;3.80;;;2.35;;
62071;SDS011;48031;48.542;13.232;2023-02-01T22:59:32;5.55;;;2.03;;
62071;SDS011;48031;48.542;13.232;2023-02-01T23:03:35;4.25;;;1.70;;
62071;SDS011;48031;48.542;13.232;2023-02-01T23:07:38;4.32;;;2.13;;
62071;SDS011;48031;48.542;13.232;2023-02-01T23:11:40;2.80;;;2.10;;
62071;SDS011;48031;48.542;13.232;2023-02-01T23:15:42;5.22;;;2.15;;
62071;SDS011;48031;48.542;13.232;2023-02-01T23:19:45;7.05;;;2.00;;
62071;SDS011;48031;48.542;13.232;2023-02-01T23:23:47;4.00;;;1.98;;
62071;SDS011;48031;48.542;13.232;2023-02-01T23:27:56;4.03;;;2.63;;
62071;SDS011;48031;48.542;13.232;2023-02-01T23:31:58;10.77;;;2.47;;
62071;SDS011;48031;48.542;13.232;2023-02-01T23:36:01;2.90;;;1.77;;
62071;SDS011;48031;48.542;13.232;2023-02-01T23:40:04;4.38;;;1.90;;
62071;SDS011;48031;48.542;13.232;2023-02-01T23:44:06;2.00;;;1.80;;
62071;SDS011;48031;48.542;13.232;2023-02-01T23:48:08;4.88;;;2.30;;
62071;SDS011;48031;48.542;13.232;2023-02-01T23:52:10;9.23;;;2.30;;
62071;SDS011;48031;48.542;13.232;2023-02-01T23:56:16;5.93;;;2.25;;
